Time;durP1;ratioP1;P1;durP2;ratioP2;P2;SDS_P1;SDS_P2;PMS_P1;PMS_P2;Temp;Humidity;BMP_temperature;BMP_pressure;BME280_temperature;BME280_humidity;BME280_pressure;Samples;Min_cycle;Max_cycle;Signal;HPM_P1;HPM_P2
2024/03/12 00:00:07;;;;;;;112.20;51.90;;;7.50;99.90;;;;;;4969674;28;20050;-84
2024/03/12 00:02:34;;;;;;;118.50;54.50;;;7.50;99.90;;;;;;4975449;28;20057;-84
2024/03/12 00:05:07;;;;;;;111.47;51.97;;;7.50;99.90;;;;;;4978216;28;20498;-85
2024/03/12 00:07:33;;;;;;;101.18;48.92;;;7.50;99.90;;;;;;4973301;28;20398;-84
2024/03/12 00:10:00;;;;;;;101.88;48.67;;;7.60;99.90;;;;;;4975071;28;20030;-85
2024/03/12 00:12:26;;;;;;;97.35;47.42;;;7.60;99.90;;;;;;4973428;28;20026;-84
2024/03/12 00:14:51;;;;;;;102.78;46.30;;;7.60;99.90;;;;;;4971701;28;20491;-84
2024/03/12 00:17:19;;;;;;;96.05;47.58;;;7.60;99.90;;;;;;4978913;28;20022;-85
2024/03/12 00:19:46;;;;;;;97.25;48.40;;;7.60;99.90;;;;;;4978997;28;20113;-84
2024/03/12 00:22:12;;;;;;;94.20;47.50;;;7.60;99.90;;;;;;4970322;28;20394;-84
2024/03/12 00:24:40;;;;;;;105.72;50.83;;;7.60;99.90;;;;;;4989249;28;20442;-84
2024/03/12 00:27:09;;;;;;;102.97;49.75;;;7.60;99.90;;;;;;4977859;28;20025;-84
2024/03/12 00:29:35;;;;;;;103.60;49.63;;;7.60;99.90;;;;;;4978464;28;20045;-84
2024/03/12 00:32:00;;;;;;;110.03;52.33;;;7.60;99.90;;;;;;4973714;28;20022;-84
2024/03/12 00:34:26;;;;;;;108.55;50.63;;;7.60;99.90;;;;;;4978454;28;20058;-84
2024/03/12 00:36:52;;;;;;;108.55;50.40;;;7.60;99.90;;;;;;4974998;28;20019;-85
2024/03/12 00:39:21;;;;;;;113.00;51.95;;;7.60;99.90;;;;;;4974935;28;20066;-84
2024/03/12 00:41:48;;;;;;;102.07;51.22;;;7.60;99.90;;;;;;4977932;28;20030;-85
2024/03/12 00:44:13;;;;;;;102.18;48.40;;;7.60;99.90;;;;;;4977209;28;20045;-84
2024/03/12 00:46:40;;;;;;;99.60;48.00;;;7.60;99.90;;;;;;4970665;28;20035;-84
2024/03/12 00:49:05;;;;;;;99.45;47.38;;;7.60;99.90;;;;;;4978445;28;20033;-84
2024/03/12 00:51:31;;;;;;;100.30;49.65;;;7.60;99.90;;;;;;4978585;28;20027;-84
2024/03/12 00:53:57;;;;;;;104.13;48.25;;;7.50;99.90;;;;;;4994906;28;20034;-84
2024/03/12 00:56:22;;;;;;;110.72;50.70;;;7.60;99.90;;;;;;4978520;28;20061;-84
2024/03/12 00:58:48;;;;;;;106.75;49.85;;;7.60;99.90;;;;;;4993815;28;20050;-84
2024/03/12 01:01:14;;;;;;;103.13;49.03;;;7.50;99.90;;;;;;4973405;28;20439;-84
2024/03/12 01:03:42;;;;;;;107.65;49.75;;;7.60;99.90;;;;;;4974287;28;20038;-84
2024/03/12 01:06:11;;;;;;;111.45;49.67;;;7.50;99.90;;;;;;4974399;28;20496;-84
2024/03/12 01:08:37;;;;;;;113.20;51.22;;;7.50;99.90;;;;;;4974996;28;20081;-84
2024/03/12 01:11:03;;;;;;;110.10;51.17;;;7.50;99.90;;;;;;4978139;28;20032;-84
2024/03/12 01:13:29;;;;;;;104.55;49.00;;;7.50;99.90;;;;;;4968656;28;20076;-84
2024/03/12 01:15:55;;;;;;;94.43;47.53;;;7.50;99.90;;;;;;4966316;28;20554;-85
2024/03/12 01:18:20;;;;;;;102.00;46.42;;;7.50;99.90;;;;;;4977787;28;20058;-84
2024/03/12 01:20:46;;;;;;;103.32;50.38;;;7.50;99.90;;;;;;4977732;28;20023;-84
2024/03/12 01:23:13;;;;;;;110.10;49.33;;;7.60;99.90;;;;;;4977547;28;20041;-85
2024/03/12 01:25:39;;;;;;;110.90;50.83;;;7.60;99.90;;;;;;4987768;28;20023;-84
2024/03/12 01:28:05;;;;;;;107.10;48.47;;;7.60;99.90;;;;;;4974516;28;20482;-84
2024/03/12 01:30:30;;;;;;;111.35;50.10;;;7.50;99.90;;;;;;4974038;28;20030;-84
2024/03/12 01:32:57;;;;;;;116.20;50.83;;;7.50;99.90;;;;;;4972705;28;20049;-84
2024/03/12 01:35:26;;;;;;;113.85;51.78;;;7.50;99.90;;;;;;4971228;28;20023;-84
2024/03/12 01:37:52;;;;;;;114.10;53.30;;;7.50;99.90;;;;;;4958572;28;20030;-83
2024/03/12 01:40:21;;;;;;;102.53;49.38;;;7.50;99.90;;;;;;4968109;28;20018;-84
2024/03/12 01:42:52;;;;;;;118.10;51.30;;;7.50;99.90;;;;;;4976352;28;20474;-84
2024/03/12 01:45:20;;;;;;;109.45;50.13;;;7.60;99.90;;;;;;4971702;28;20117;-84
2024/03/12 01:47:47;;;;;;;113.63;50.63;;;7.60;99.90;;;;;;4974280;28;20502;-84
2024/03/12 01:50:14;;;;;;;112.45;50.35;;;7.60;99.90;;;;;;4964939;28;20165;-84
2024/03/12 01:52:40;;;;;;;119.78;49.92;;;7.60;99.90;;;;;;4972370;28;20037;-84
2024/03/12 01:55:07;;;;;;;101.60;46.60;;;7.60;99.90;;;;;;4965658;28;20064;-83
2024/03/12 01:57:32;;;;;;;103.43;48.45;;;7.60;99.90;;;;;;4970784;28;20165;-84
2024/03/12 01:59:58;;;;;;;108.43;49.83;;;7.50;99.90;;;;;;4971346;28;20516;-84
2024/03/12 02:02:23;;;;;;;100.40;48.33;;;7.60;99.90;;;;;;4972588;28;20042;-84
2024/03/12 02:04:49;;;;;;;106.35;50.53;;;7.60;99.90;;;;;;4968472;28;20049;-83
2024/03/12 02:07:15;;;;;;;121.93;52.75;;;7.50;99.90;;;;;;4993870;28;20033;-83
2024/03/12 02:09:43;;;;;;;101.55;47.03;;;7.60;99.90;;;;;;4993475;28;20529;-84
2024/03/12 02:12:09;;;;;;;103.80;48.30;;;7.60;99.90;;;;;;4976721;28;20546;-84
2024/03/12 02:14:35;;;;;;;111.55;50.60;;;7.60;99.90;;;;;;4963480;28;20026;-84
2024/03/12 02:17:05;;;;;;;107.72;48.13;;;7.60;99.90;;;;;;4976455;28;20034;-84
2024/03/12 02:19:30;;;;;;;107.05;49.65;;;7.60;99.90;;;;;;4971960;28;20041;-84
2024/03/12 02:21:56;;;;;;;99.97;48.03;;;7.60;99.90;;;;;;4971249;28;20026;-84
2024/03/12 02:24:23;;;;;;;100.88;47.63;;;7.60;99.90;;;;;;4989053;28;20045;-83
2024/03/12 02:26:49;;;;;;;124.00;52.90;;;7.60;99.90;;;;;;4991682;28;20474;-83
2024/03/12 02:29:15;;;;;;;109.93;49.80;;;7.60;99.90;;;;;;4969639;28;20027;-84
2024/03/12 02:31:41;;;;;;;104.35;48.10;;;7.60;99.90;;;;;;4993437;28;20061;-84
2024/03/12 02:34:06;;;;;;;108.45;48.45;;;7.60;99.90;;;;;;4974278;28;20111;-83
2024/03/12 02:36:36;;;;;;;95.75;46.70;;;7.60;99.90;;;;;;4976286;28;20125;-83
2024/03/12 02:39:03;;;;;;;100.20;46.70;;;7.60;99.90;;;;;;4975760;28;20475;-84
2024/03/12 02:41:31;;;;;;;108.13;48.10;;;7.60;99.90;;;;;;4990622;28;20092;-83
2024/03/12 02:43:56;;;;;;;96.38;46.53;;;7.60;99.90;;;;;;4975338;28;20038;-83
2024/03/12 02:46:22;;;;;;;91.20;41.20;;;7.60;99.90;;;;;;4972292;28;20022;-83
2024/03/12 02:48:51;;;;;;;89.47;43.72;;;7.60;99.90;;;;;;4981316;28;20026;-83
2024/03/12 02:51:17;;;;;;;95.60;41.92;;;7.60;99.90;;;;;;4976317;28;20120;-84
2024/03/12 02:53:42;;;;;;;92.72;43.30;;;7.60;99.90;;;;;;4974825;28;20121;-83
2024/03/12 02:56:08;;;;;;;81.30;39.08;;;7.60;99.90;;;;;;4975778;28;20399;-83
2024/03/12 02:58:35;;;;;;;88.75;40.47;;;7.60;99.90;;;;;;4992786;28;20038;-83
2024/03/12 03:01:00;;;;;;;87.72;41.13;;;7.60;99.90;;;;;;4992807;28;20082;-84
2024/03/12 03:03:27;;;;;;;90.30;41.92;;;7.60;99.90;;;;;;4980879;28;20192;-83
2024/03/12 03:05:52;;;;;;;96.28;43.42;;;7.60;99.90;;;;;;4975601;28;20127;-84
2024/03/12 03:08:18;;;;;;;101.88;42.80;;;7.60;99.90;;;;;;4972142;28;20120;-84
2024/03/12 03:10:44;;;;;;;88.65;40.35;;;7.50;99.90;;;;;;4967641;28;20118;-84
2024/03/12 03:13:11;;;;;;;94.07;42.42;;;7.50;99.90;;;;;;4971874;28;20486;-84
2024/03/12 03:15:36;;;;;;;85.25;39.05;;;7.50;99.90;;;;;;4967609;28;20133;-84
2024/03/12 03:18:02;;;;;;;97.57;40.95;;;7.50;99.90;;;;;;4974983;28;20503;-84
2024/03/12 03:20:28;;;;;;;85.40;39.42;;;7.50;99.90;;;;;;4974610;28;20066;-83
2024/03/12 03:22:53;;;;;;;89.85;41.30;;;7.50;99.90;;;;;;4972776;28;20069;-84
2024/03/12 03:25:19;;;;;;;78.85;36.67;;;7.50;99.90;;;;;;4972423;28;20501;-84
2024/03/12 03:27:45;;;;;;;84.18;39.25;;;7.50;99.90;;;;;;4975761;28;20026;-84
2024/03/12 03:30:17;;;;;;;85.53;40.05;;;7.40;99.90;;;;;;4970017;28;20050;-84
2024/03/12 03:32:43;;;;;;;;;;;7.40;99.90;;;;;;4964713;28;20034;-84
2024/03/12 03:35:09;;;;;;;68.88;32.13;;;7.40;99.90;;;;;;4963632;28;19969;-85
2024/03/12 03:37:35;;;;;;;79.65;34.85;;;7.40;99.90;;;;;;4975875;28;20483;-84
2024/03/12 03:40:04;;;;;;;67.72;32.55;;;7.40;99.90;;;;;;4967742;28;20027;-84
2024/03/12 03:42:33;;;;;;;73.25;35.28;;;7.30;99.90;;;;;;4966504;28;20030;-84
2024/03/12 03:44:59;;;;;;;71.95;36.13;;;7.30;99.90;;;;;;4975645;28;20062;-84
2024/03/12 03:47:24;;;;;;;67.35;33.22;;;7.30;99.90;;;;;;4975477;28;20077;-84
2024/03/12 03:49:52;;;;;;;68.20;33.03;;;7.30;99.90;;;;;;4974246;28;20089;-83
2024/03/12 03:52:18;;;;;;;60.20;31.45;;;7.30;99.90;;;;;;4974040;28;20030;-84
2024/03/12 03:54:43;;;;;;;65.57;31.40;;;7.30;99.90;;;;;;4967046;28;20019;-84
2024/03/12 03:57:09;;;;;;;63.42;30.67;;;7.30;99.90;;;;;;4974033;28;20084;-84
2024/03/12 03:59:35;;;;;;;65.05;30.27;;;7.20;99.90;;;;;;4979475;28;20042;-85
2024/03/12 04:02:01;;;;;;;66.93;33.00;;;7.20;99.90;;;;;;4976503;28;20483;-85
2024/03/12 04:04:26;;;;;;;67.13;33.92;;;7.20;99.90;;;;;;4968380;28;20030;-85
2024/03/12 04:06:52;;;;;;;69.53;32.00;;;7.20;99.90;;;;;;4962118;28;20030;-85
2024/03/12 04:09:17;;;;;;;74.50;32.80;;;7.20;99.90;;;;;;4972979;28;20042;-85
2024/03/12 04:11:48;;;;;;;73.82;31.95;;;7.10;99.90;;;;;;4964054;28;20026;-83
2024/03/12 04:14:14;;;;;;;72.13;32.53;;;7.20;99.90;;;;;;4972483;28;20487;-85
2024/03/12 04:16:40;;;;;;;79.05;32.47;;;7.10;99.90;;;;;;4978733;28;20156;-85
2024/03/12 04:19:05;;;;;;;71.35;33.17;;;7.20;99.90;;;;;;4978677;28;20049;-85
2024/03/12 04:21:31;;;;;;;67.00;30.45;;;7.10;99.90;;;;;;4974254;28;20117;-84
2024/03/12 04:23:57;;;;;;;69.28;30.50;;;7.20;99.90;;;;;;4980142;28;20057;-85
2024/03/12 04:26:23;;;;;;;70.93;28.85;;;7.10;99.90;;;;;;4980628;28;20018;-85
2024/03/12 04:28:49;;;;;;;71.65;30.55;;;7.10;99.90;;;;;;4980780;28;20480;-84
2024/03/12 04:31:14;;;;;;;56.05;26.65;;;7.00;99.90;;;;;;4980580;28;20105;-85
2024/03/12 04:33:40;;;;;;;59.88;27.83;;;7.00;99.90;;;;;;4994713;28;20030;-84
2024/03/12 04:36:06;;;;;;;70.53;28.92;;;7.00;99.90;;;;;;4977778;28;20029;-84
2024/03/12 04:38:32;;;;;;;64.03;29.13;;;7.00;99.90;;;;;;4967222;28;20034;-84
2024/03/12 04:40:59;;;;;;;62.35;27.58;;;7.00;99.90;;;;;;4977956;28;20058;-84
2024/03/12 04:43:24;;;;;;;62.15;27.92;;;7.10;99.90;;;;;;4978597;28;20080;-84
2024/03/12 04:45:50;;;;;;;60.42;28.83;;;7.00;99.90;;;;;;4977742;28;20026;-84
2024/03/12 04:48:15;;;;;;;55.42;26.02;;;7.00;99.90;;;;;;4981304;28;20039;-85
2024/03/12 04:50:41;;;;;;;57.92;25.85;;;7.00;99.90;;;;;;4971652;28;20027;-84
2024/03/12 04:53:08;;;;;;;56.25;26.77;;;7.00;99.90;;;;;;4974549;28;20023;-85
2024/03/12 04:55:34;;;;;;;54.40;25.85;;;7.00;99.90;;;;;;4972863;28;20510;-84
2024/03/12 04:58:00;;;;;;;69.57;29.60;;;7.00;99.90;;;;;;4977931;28;20026;-84
2024/03/12 05:00:28;;;;;;;64.25;29.33;;;7.00;99.90;;;;;;4977632;28;20414;-84
2024/03/12 05:02:55;;;;;;;59.50;29.00;;;6.90;99.90;;;;;;4994846;28;20085;-84
2024/03/12 05:05:21;;;;;;;68.13;30.23;;;7.00;99.90;;;;;;4972629;28;20097;-84
2024/03/12 05:07:50;;;;;;;63.30;27.13;;;6.90;99.90;;;;;;4977814;28;20030;-85
2024/03/12 05:10:21;;;;;;;72.13;31.45;;;7.00;99.90;;;;;;4972527;28;20049;-84
2024/03/12 05:12:47;;;;;;;67.15;30.95;;;6.90;99.90;;;;;;4975341;28;20026;-84
2024/03/12 05:15:12;;;;;;;71.57;30.33;;;7.00;99.90;;;;;;4966177;28;20027;-84
2024/03/12 05:17:42;;;;;;;83.40;34.05;;;7.00;99.90;;;;;;4983162;28;20057;-85
2024/03/12 05:20:14;;;;;;;69.10;30.00;;;7.00;99.90;;;;;;4971051;28;20118;-84
2024/03/12 05:22:40;;;;;;;69.72;32.63;;;7.00;99.90;;;;;;4975172;28;20450;-84
2024/03/12 05:25:10;;;;;;;81.05;33.30;;;7.10;99.90;;;;;;4973447;28;20026;-84
2024/03/12 05:27:42;;;;;;;75.60;31.65;;;7.00;99.90;;;;;;4978060;28;20081;-84
2024/03/12 05:30:14;;;;;;;75.32;33.40;;;7.10;99.90;;;;;;4976612;28;20046;-84
2024/03/12 05:32:43;;;;;;;68.72;32.92;;;7.10;99.90;;;;;;4969524;28;20026;-84
2024/03/12 05:35:22;;;;;;;77.97;34.22;;;7.10;99.90;;;;;;4977123;28;20030;-84
2024/03/12 05:38:03;;;;;;;77.55;33.22;;;7.10;99.90;;;;;;4977425;28;20434;-84
2024/03/12 05:40:40;;;;;;;77.15;33.95;;;7.20;99.90;;;;;;4972585;28;20037;-85
2024/03/12 05:48:37;;;;;;;77.97;33.88;;;7.10;99.90;;;;;;4990969;28;20057;-85
2024/03/12 05:51:03;;;;;;;80.07;35.22;;;7.10;99.90;;;;;;4978317;28;20031;-84
2024/03/12 05:53:29;;;;;;;86.75;34.20;;;7.10;99.90;;;;;;4979426;28;20512;-85
2024/03/12 05:55:55;;;;;;;90.55;36.05;;;7.10;99.90;;;;;;4979347;28;20025;-85
2024/03/12 05:58:21;;;;;;;80.35;34.22;;;7.20;99.90;;;;;;4980953;28;20149;-85
2024/03/12 06:00:47;;;;;;;89.57;33.92;;;7.20;99.90;;;;;;4977883;28;20034;-85
2024/03/12 06:03:14;;;;;;;83.78;33.90;;;7.20;99.90;;;;;;4973892;28;20038;-86
2024/03/12 06:05:41;;;;;;;80.30;32.90;;;7.20;99.90;;;;;;4978551;28;20018;-85
2024/03/12 06:08:07;;;;;;;71.32;30.73;;;7.20;99.90;;;;;;4978126;28;20036;-85
2024/03/12 06:10:32;;;;;;;73.32;31.05;;;7.20;99.90;;;;;;4978765;28;20034;-85
2024/03/12 06:12:58;;;;;;;71.50;30.50;;;7.20;99.90;;;;;;4974835;28;20084;-85
2024/03/12 06:15:23;;;;;;;69.57;28.38;;;7.20;99.90;;;;;;4974343;28;20031;-85
2024/03/12 06:17:49;;;;;;;82.70;30.73;;;7.20;99.90;;;;;;4973743;28;20057;-85
2024/03/12 06:20:15;;;;;;;91.38;30.63;;;7.10;99.90;;;;;;4979361;28;20132;-85
2024/03/12 06:22:44;;;;;;;68.80;29.73;;;7.10;99.90;;;;;;4979196;28;20102;-86
2024/03/12 06:25:10;;;;;;;82.15;34.78;;;7.10;99.90;;;;;;4978819;28;20025;-85
2024/03/12 06:27:38;;;;;;;79.78;31.85;;;7.20;99.90;;;;;;4973029;28;20026;-85
2024/03/12 06:30:05;;;;;;;78.13;32.30;;;7.20;99.90;;;;;;4969731;28;20627;-85
2024/03/12 06:32:32;;;;;;;81.03;33.25;;;7.20;99.90;;;;;;4975728;28;20125;-85
2024/03/12 06:34:58;;;;;;;76.10;33.22;;;7.20;99.90;;;;;;4964947;28;20054;-84
2024/03/12 06:37:25;;;;;;;87.38;33.22;;;7.20;99.90;;;;;;4973203;28;20487;-85
2024/03/12 06:39:52;;;;;;;74.68;30.45;;;7.20;99.90;;;;;;4970699;28;20030;-85
2024/03/12 06:42:19;;;;;;;79.50;31.88;;;7.20;99.90;;;;;;4978272;28;20037;-85
2024/03/12 06:44:47;;;;;;;81.05;33.78;;;7.20;99.90;;;;;;4969485;28;20034;-85
2024/03/12 06:47:14;;;;;;;75.93;32.20;;;7.20;99.90;;;;;;4973239;28;20042;-85
2024/03/12 06:49:44;;;;;;;81.45;31.88;;;7.20;99.90;;;;;;4977019;28;20034;-85
2024/03/12 06:52:12;;;;;;;74.00;29.65;;;7.20;99.90;;;;;;4971584;28;20069;-86
2024/03/12 06:54:38;;;;;;;72.95;30.90;;;7.20;99.90;;;;;;4970447;28;20022;-86
2024/03/12 06:57:04;;;;;;;69.65;29.25;;;7.20;99.90;;;;;;4973712;28;20023;-86
2024/03/12 06:59:33;;;;;;;76.43;30.67;;;7.20;99.90;;;;;;4975834;28;20042;-86
2024/03/12 07:02:00;;;;;;;75.32;31.02;;;7.20;99.90;;;;;;4975133;28;20037;-85
2024/03/12 07:04:34;;;;;;;65.18;27.17;;;7.30;99.90;;;;;;4983766;28;20957;-84
2024/03/12 07:07:05;;;;;;;69.32;29.67;;;7.30;99.90;;;;;;4971128;28;20029;-84
2024/03/12 07:09:35;;;;;;;76.20;30.58;;;7.30;99.90;;;;;;4975651;28;20097;-85
2024/03/12 07:12:04;;;;;;;78.47;30.52;;;7.30;99.90;;;;;;4966040;28;20105;-86
2024/03/12 07:14:32;;;;;;;73.00;30.20;;;7.30;99.90;;;;;;4975084;28;20117;-85
2024/03/12 07:16:58;;;;;;;78.13;30.30;;;7.30;99.90;;;;;;4993497;28;20026;-85
2024/03/12 07:19:23;;;;;;;77.10;29.88;;;7.30;99.90;;;;;;4993035;28;20018;-85
2024/03/12 07:21:49;;;;;;;76.10;31.70;;;7.30;99.90;;;;;;4990737;28;20078;-85
2024/03/12 07:24:15;;;;;;;77.78;30.45;;;7.30;99.90;;;;;;4987041;28;20480;-85
2024/03/12 07:26:45;;;;;;;70.90;29.13;;;7.30;99.90;;;;;;4965071;28;20028;-86
2024/03/12 07:29:11;;;;;;;71.25;29.15;;;7.30;99.90;;;;;;4967224;28;20536;-85
2024/03/12 07:31:37;;;;;;;75.95;31.52;;;7.40;99.90;;;;;;4966310;28;20053;-85
2024/03/12 07:34:03;;;;;;;71.60;28.48;;;7.40;99.90;;;;;;4970694;28;20019;-85
2024/03/12 07:36:32;;;;;;;61.90;25.92;;;7.40;99.90;;;;;;4976125;28;20030;-86
2024/03/12 07:38:57;;;;;;;63.80;26.90;;;7.40;99.90;;;;;;4971003;28;20031;-85
2024/03/12 07:41:23;;;;;;;72.97;28.25;;;7.50;99.90;;;;;;4969824;28;20101;-85
2024/03/12 07:43:49;;;;;;;71.72;29.10;;;7.40;99.90;;;;;;4971521;28;20134;-85
2024/03/12 07:46:17;;;;;;;64.82;27.27;;;7.50;99.90;;;;;;4973998;28;20026;-84
2024/03/12 07:48:43;;;;;;;65.35;26.00;;;7.40;99.90;;;;;;4977613;28;20117;-85
2024/03/12 07:51:09;;;;;;;59.78;22.85;;;7.50;99.90;;;;;;4975484;28;20026;-85
2024/03/12 07:53:35;;;;;;;59.58;24.30;;;7.50;99.90;;;;;;4977580;28;20054;-85
2024/03/12 07:56:01;;;;;;;62.15;24.50;;;7.60;99.90;;;;;;4977734;28;20023;-85
2024/03/12 07:58:30;;;;;;;54.28;24.27;;;7.60;99.90;;;;;;4973748;28;20033;-85
2024/03/12 08:00:55;;;;;;;56.05;23.23;;;7.60;99.90;;;;;;4965982;28;20045;-85
2024/03/12 08:03:21;;;;;;;52.40;23.50;;;7.60;99.90;;;;;;4962390;28;20046;-85
2024/03/12 08:05:48;;;;;;;58.00;22.70;;;7.60;99.90;;;;;;4949212;28;20046;-85
2024/03/12 08:08:13;;;;;;;56.92;22.90;;;7.60;99.90;;;;;;4977560;28;20501;-85
2024/03/12 08:10:39;;;;;;;46.30;22.17;;;7.60;99.90;;;;;;4977707;28;20031;-85
2024/03/12 08:13:08;;;;;;;51.15;21.10;;;7.60;99.90;;;;;;4975987;28;20027;-85
2024/03/12 08:15:34;;;;;;;56.33;23.48;;;7.60;99.90;;;;;;4977622;28;20432;-85
2024/03/12 08:18:01;;;;;;;51.00;20.33;;;7.60;99.90;;;;;;4975078;28;20069;-85
2024/03/12 08:20:27;;;;;;;54.05;20.17;;;7.50;99.90;;;;;;4975379;28;20023;-85
2024/03/12 08:22:52;;;;;;;39.55;19.45;;;7.50;99.90;;;;;;4969284;28;20040;-85
2024/03/12 08:25:18;;;;;;;52.92;21.35;;;7.50;99.90;;;;;;4975017;28;20462;-85
2024/03/12 08:27:44;;;;;;;47.33;19.50;;;7.50;99.90;;;;;;4970611;28;20030;-85
2024/03/12 08:30:11;;;;;;;46.28;20.23;;;7.50;99.90;;;;;;4975904;28;20037;-85
2024/03/12 08:32:38;;;;;;;46.33;20.20;;;7.50;99.90;;;;;;4965720;28;20046;-85
2024/03/12 08:35:03;;;;;;;44.15;21.05;;;7.50;99.90;;;;;;4967166;28;20030;-85
2024/03/12 08:37:29;;;;;;;44.70;20.15;;;7.50;99.90;;;;;;4978580;28;20030;-85
2024/03/12 08:39:55;;;;;;;42.78;21.05;;;7.60;99.90;;;;;;4979754;28;20193;-84
2024/03/12 08:42:21;;;;;;;45.05;20.38;;;7.60;99.90;;;;;;4974418;28;20018;-85
2024/03/12 08:44:47;;;;;;;49.72;20.85;;;7.60;99.90;;;;;;4980184;28;20038;-86
2024/03/12 08:47:13;;;;;;;42.85;20.63;;;7.70;99.90;;;;;;4981101;28;20026;-86
2024/03/12 08:49:40;;;;;;;56.28;22.42;;;7.70;99.90;;;;;;4980371;28;20030;-85
2024/03/12 08:52:06;;;;;;;47.22;24.15;;;7.70;99.90;;;;;;4980519;28;20490;-86
2024/03/12 08:54:32;;;;;;;42.75;21.05;;;7.70;99.90;;;;;;4981316;28;20038;-85
2024/03/12 08:56:58;;;;;;;45.42;22.38;;;7.70;99.90;;;;;;4973163;28;20030;-85
2024/03/12 08:59:24;;;;;;;49.72;23.60;;;7.70;99.90;;;;;;4979632;28;20046;-85
2024/03/12 09:01:50;;;;;;;55.10;25.30;;;7.70;99.90;;;;;;4979830;28;20038;-85
2024/03/12 09:04:15;;;;;;;46.95;22.83;;;7.70;99.90;;;;;;4966889;28;20041;-85
2024/03/12 09:06:41;;;;;;;51.53;24.80;;;7.70;99.90;;;;;;4979151;28;20029;-86
2024/03/12 09:09:09;;;;;;;52.25;24.50;;;7.70;99.90;;;;;;4990750;28;20030;-86
2024/03/12 09:11:38;;;;;;;49.05;23.95;;;7.70;99.90;;;;;;4974467;28;20026;-85
2024/03/12 09:14:04;;;;;;;51.53;24.42;;;7.70;99.90;;;;;;4976164;28;20383;-86
2024/03/12 09:16:30;;;;;;;51.60;23.73;;;7.80;99.90;;;;;;4968075;28;20506;-85
2024/03/12 09:18:55;;;;;;;58.80;26.08;;;7.80;99.90;;;;;;4976613;28;20034;-85
2024/03/12 09:21:21;;;;;;;58.30;24.63;;;7.80;99.90;;;;;;4972796;28;20471;-85
2024/03/12 09:23:47;;;;;;;46.38;23.70;;;7.90;99.90;;;;;;4977454;28;20038;-85
2024/03/12 09:26:13;;;;;;;51.70;23.73;;;7.90;99.90;;;;;;4980089;28;20479;-85
2024/03/12 09:28:38;;;;;;;56.83;25.20;;;8.00;99.90;;;;;;4965691;28;20037;-86
2024/03/12 09:31:05;;;;;;;47.03;24.65;;;8.00;99.90;;;;;;4974834;28;20036;-86
2024/03/12 09:33:31;;;;;;;47.85;23.35;;;8.00;99.90;;;;;;4972883;28;20030;-86
2024/03/12 09:35:57;;;;;;;49.95;25.88;;;8.20;99.90;;;;;;4970572;28;20076;-85
2024/03/12 09:38:24;;;;;;;47.40;23.38;;;8.20;99.90;;;;;;4966769;28;20027;-85
2024/03/12 09:40:56;;;;;;;61.38;26.23;;;8.30;99.90;;;;;;4976600;28;20097;-85
2024/03/12 09:43:24;;;;;;;49.00;24.88;;;8.30;99.90;;;;;;4968871;28;20045;-84
2024/03/12 09:45:51;;;;;;;52.75;25.38;;;8.30;99.90;;;;;;4968473;28;20117;-85
2024/03/12 09:48:17;;;;;;;48.00;23.92;;;8.40;99.90;;;;;;4965208;28;20030;-85
2024/03/12 09:50:43;;;;;;;48.67;24.52;;;8.50;99.90;;;;;;4975390;28;20023;-84
2024/03/12 09:53:13;;;;;;;53.35;25.88;;;8.60;99.90;;;;;;4970805;28;20049;-85
2024/03/12 09:55:40;;;;;;;52.00;25.65;;;8.70;99.90;;;;;;4962985;28;20061;-85
2024/03/12 09:58:08;;;;;;;58.08;25.90;;;8.80;99.90;;;;;;4959039;28;20499;-84
2024/03/12 10:00:36;;;;;;;53.83;26.98;;;8.90;99.90;;;;;;4968358;28;20073;-84
2024/03/12 10:03:03;;;;;;;45.75;25.15;;;8.90;99.90;;;;;;4962109;28;20038;-84
2024/03/12 10:05:29;;;;;;;50.10;25.65;;;9.00;99.90;;;;;;4972678;28;20045;-84
2024/03/12 10:08:14;;;;;;;50.22;25.23;;;9.20;99.90;;;;;;4962053;28;20022;-85
2024/03/12 10:10:44;;;;;;;50.22;26.58;;;9.20;99.90;;;;;;4971701;28;20047;-84
2024/03/12 10:13:17;;;;;;;45.90;24.83;;;9.20;99.90;;;;;;4963090;28;20038;-84
2024/03/12 10:15:59;;;;;;;48.78;25.25;;;9.30;99.90;;;;;;4966155;28;20065;-85
2024/03/12 10:18:34;;;;;;;;;;;9.40;99.90;;;;;;4965122;28;20034;-85
2024/03/12 10:21:01;;;;;;;42.90;22.67;;;9.40;99.90;;;;;;4964537;28;20436;-85
2024/03/12 10:23:29;;;;;;;44.60;22.90;;;9.50;99.90;;;;;;4980343;28;20133;-84
2024/03/12 10:26:16;;;;;;;43.70;24.58;;;9.60;99.90;;;;;;4974340;28;20223;-83
2024/03/12 10:28:46;;;;;;;55.25;24.40;;;9.70;99.90;;;;;;4965715;28;20117;-84
2024/03/12 10:31:13;;;;;;;43.40;23.92;;;9.70;99.90;;;;;;4962600;28;20034;-84
2024/03/12 10:33:44;;;;;;;44.22;24.13;;;9.70;99.90;;;;;;4969284;28;20056;-84
2024/03/12 10:36:11;;;;;;;46.28;23.85;;;9.70;99.90;;;;;;4965726;28;20026;-84
2024/03/12 10:38:39;;;;;;;45.88;24.25;;;9.70;99.90;;;;;;4963992;28;20038;-85
2024/03/12 10:41:19;;;;;;;39.47;23.10;;;9.80;99.90;;;;;;4964743;28;20030;-84
2024/03/12 10:43:46;;;;;;;40.17;22.90;;;9.90;99.90;;;;;;4961908;28;20574;-85
2024/03/12 10:46:14;;;;;;;49.35;25.02;;;9.90;99.90;;;;;;4970824;28;20053;-89
2024/03/12 10:48:42;;;;;;;43.08;23.52;;;10.00;99.90;;;;;;4962331;28;20114;-85
2024/03/12 10:51:12;;;;;;;47.33;25.05;;;10.00;99.90;;;;;;4964888;28;20022;-85
2024/03/12 10:53:38;;;;;;;38.08;21.83;;;10.10;99.90;;;;;;4967395;28;20521;-85
2024/03/12 10:56:05;;;;;;;37.25;21.73;;;10.10;99.90;;;;;;4970314;28;20030;-85
2024/03/12 10:58:33;;;;;;;36.03;20.60;;;10.20;99.90;;;;;;4965286;28;20026;-85
2024/03/12 11:01:00;;;;;;;37.50;21.77;;;10.20;99.90;;;;;;4961595;28;20045;-85
2024/03/12 11:03:27;;;;;;;38.00;22.15;;;10.30;99.90;;;;;;4960020;28;20070;-86
2024/03/12 11:05:54;;;;;;;37.47;21.55;;;10.30;99.90;;;;;;4958320;28;20500;-85
2024/03/12 11:08:20;;;;;;;34.03;20.58;;;10.30;99.90;;;;;;4963221;28;20053;-86
2024/03/12 11:10:47;;;;;;;35.75;21.58;;;10.30;99.90;;;;;;4961165;28;20068;-85
2024/03/12 11:13:16;;;;;;;38.40;21.75;;;10.20;99.90;;;;;;4978879;28;20038;-85
2024/03/12 11:15:42;;;;;;;36.50;20.48;;;10.10;99.90;;;;;;4965136;28;20053;-85
2024/03/12 11:18:09;;;;;;;42.72;21.70;;;10.00;99.90;;;;;;4969312;28;20064;-83
2024/03/12 11:20:39;;;;;;;40.55;21.65;;;9.90;99.90;;;;;;4966399;28;20470;-86
2024/03/12 11:23:06;;;;;;;38.42;21.90;;;9.80;99.90;;;;;;4970256;28;20129;-85
2024/03/12 11:25:43;;;;;;;39.58;22.30;;;9.80;99.90;;;;;;4964300;28;20035;-85
2024/03/12 11:28:20;;;;;;;39.58;21.90;;;9.80;99.90;;;;;;4958649;28;20057;-85
2024/03/12 11:31:04;;;;;;;42.35;22.33;;;9.90;99.90;;;;;;4960247;28;20027;-84
2024/03/12 11:33:45;;;;;;;40.90;20.88;;;10.00;99.90;;;;;;4966620;28;20042;-85
2024/03/12 11:36:21;;;;;;;38.75;21.13;;;10.20;99.90;;;;;;4967662;28;20396;-84
2024/03/12 11:38:51;;;;;;;39.03;21.42;;;10.40;99.90;;;;;;4969845;28;20053;-84
2024/03/12 11:41:18;;;;;;;39.33;23.23;;;10.50;99.90;;;;;;4965980;28;20390;-85
2024/03/12 11:43:44;;;;;;;37.00;22.27;;;10.70;99.90;;;;;;4971613;28;20109;-85
2024/03/12 11:46:30;;;;;;;39.42;22.90;;;10.80;99.90;;;;;;4967159;28;20114;-85
2024/03/12 11:48:57;;;;;;;36.60;21.10;;;10.90;99.90;;;;;;4966275;28;20114;-85
2024/03/12 11:51:23;;;;;;;38.30;22.08;;;10.90;99.90;;;;;;4964862;28;20031;-84
2024/03/12 11:53:49;;;;;;;39.50;24.83;;;10.90;99.90;;;;;;4975396;28;20031;-84
2024/03/12 11:56:21;;;;;;;42.05;25.10;;;10.70;99.90;;;;;;4974362;28;20031;-84
2024/03/12 11:58:52;;;;;;;41.45;24.98;;;10.60;99.90;;;;;;4974616;28;20442;-84
2024/03/12 12:01:34;;;;;;;38.72;23.85;;;10.70;99.90;;;;;;4982274;28;20034;-84
2024/03/12 12:04:03;;;;;;;41.53;24.77;;;10.80;99.90;;;;;;4972519;28;20053;-86
2024/03/12 12:06:31;;;;;;;45.80;26.13;;;10.80;99.90;;;;;;4991916;28;20125;-85
2024/03/12 12:09:05;;;;;;;44.35;26.50;;;10.90;99.90;;;;;;4993694;28;20564;-85
2024/03/12 12:11:34;;;;;;;45.88;26.90;;;10.90;99.90;;;;;;4974958;28;20022;-84
2024/03/12 12:14:00;;;;;;;43.58;27.20;;;11.00;99.90;;;;;;4979903;28;20042;-85
2024/03/12 12:16:27;;;;;;;44.05;27.30;;;11.00;99.90;;;;;;4970933;28;20034;-85
2024/03/12 12:19:04;;;;;;;47.60;27.58;;;11.00;99.90;;;;;;4974450;28;20029;-85
2024/03/12 12:21:30;;;;;;;43.88;25.42;;;11.00;99.90;;;;;;4979849;28;20031;-85
2024/03/12 12:23:57;;;;;;;44.65;27.73;;;10.90;99.90;;;;;;4979294;28;20034;-85
2024/03/12 12:26:23;;;;;;;44.95;26.58;;;10.90;99.90;;;;;;4971931;28;20554;-85
2024/03/12 12:28:54;;;;;;;43.50;27.15;;;10.80;99.90;;;;;;4973037;28;20121;-85
2024/03/12 12:31:22;;;;;;;51.88;27.55;;;10.80;99.90;;;;;;4975557;28;20492;-85
2024/03/12 12:34:01;;;;;;;47.38;27.98;;;10.80;99.90;;;;;;4972431;28;20038;-85
2024/03/12 12:36:30;;;;;;;49.78;27.75;;;10.90;99.90;;;;;;4972373;28;20027;-85
2024/03/12 12:39:00;;;;;;;45.78;28.33;;;10.90;99.90;;;;;;4973166;28;20026;-85